Terminal Aerodrome Forecast
Issued by NWS Goodland, KS

Home | Current Version | Previous Version | Text Only | Print | Product List | Glossary On
Versions: 1 2 3 4 5 6 7 8 9 10 11 12 13 14 15 16 17
000
FTUS43 KGLD 011121
TAFGLD
TAF
KGLD 011121Z 0112/0212 34008KT P6SM VCSH OVC090
     FM011300 35008KT P6SM SCT008 OVC090
      TEMPO 0114/0116 BKN008
     FM011600 02008KT P6SM BKN070
     FM011800 06006KT P6SM VCTS BKN070CB
     FM012000 11006KT P6SM VCTS BKN070CB
     FM012300 15008KT P6SM SCT090 SCT250
     FM020800 20007KT P6SM BKN070=

USA.gov is the U.S. government's official web portal to all federal, state and local government web resources and services.